sensor_id;sensor_type;location;lat;lon;timestamp;P1;durP1;ratioP1;P2;durP2;ratioP2
22068;SDS011;13887;57.196;-2.100;2022-10-16T00:01:27;0.10;;;0.10;;
22068;SDS011;13887;57.196;-2.100;2022-10-16T00:03:55;0.10;;;0.10;;
22068;SDS011;13887;57.196;-2.100;2022-10-16T00:06:24;0.10;;;0.10;;
22068;SDS011;13887;57.196;-2.100;2022-10-16T00:08:51;0.07;;;0.07;;
22068;SDS011;13887;57.196;-2.100;2022-10-16T00:11:26;0.10;;;0.10;;
22068;SDS011;13887;57.196;-2.100;2022-10-16T00:14:00;0.10;;;0.10;;
22068;SDS011;13887;57.196;-2.100;2022-10-16T00:16:28;0.10;;;0.10;;
22068;SDS011;13887;57.196;-2.100;2022-10-16T00:18:56;0.10;;;0.10;;
22068;SDS011;13887;57.196;-2.100;2022-10-16T00:21:24;0.10;;;0.10;;
22068;SDS011;13887;57.196;-2.100;2022-10-16T00:23:54;0.10;;;0.10;;
22068;SDS011;13887;57.196;-2.100;2022-10-16T00:26:26;0.10;;;0.10;;
22068;SDS011;13887;57.196;-2.100;2022-10-16T00:28:54;0.10;;;0.10;;
22068;SDS011;13887;57.196;-2.100;2022-10-16T00:31:21;0.10;;;0.10;;
22068;SDS011;13887;57.196;-2.100;2022-10-16T00:33:49;0.10;;;0.10;;
22068;SDS011;13887;57.196;-2.100;2022-10-16T00:36:18;0.10;;;0.10;;
22068;SDS011;13887;57.196;-2.100;2022-10-16T00:38:47;0.10;;;0.10;;
22068;SDS011;13887;57.196;-2.100;2022-10-16T00:41:19;0.10;;;0.10;;
22068;SDS011;13887;57.196;-2.100;2022-10-16T00:43:48;0.10;;;0.10;;
22068;SDS011;13887;57.196;-2.100;2022-10-16T00:46:21;0.10;;;0.10;;
22068;SDS011;13887;57.196;-2.100;2022-10-16T00:48:59;0.10;;;0.10;;
22068;SDS011;13887;57.196;-2.100;2022-10-16T00:51:32;0.10;;;0.10;;
22068;SDS011;13887;57.196;-2.100;2022-10-16T00:54:10;0.10;;;0.10;;
22068;SDS011;13887;57.196;-2.100;2022-10-16T00:56:41;0.00;;;0.00;;
22068;SDS011;13887;57.196;-2.100;2022-10-16T00:59:17;0.10;;;0.10;;
22068;SDS011;13887;57.196;-2.100;2022-10-16T01:01:56;0.10;;;0.10;;
22068;SDS011;13887;57.196;-2.100;2022-10-16T01:04:24;0.10;;;0.10;;
22068;SDS011;13887;57.196;-2.100;2022-10-16T01:06:57;0.10;;;0.10;;
22068;SDS011;13887;57.196;-2.100;2022-10-16T01:20:45;0.20;;;0.20;;
22068;SDS011;13887;57.196;-2.100;2022-10-16T01:31:17;0.10;;;0.10;;
22068;SDS011;13887;57.196;-2.100;2022-10-16T01:33:55;0.10;;;0.10;;
22068;SDS011;13887;57.196;-2.100;2022-10-16T01:36:31;0.10;;;0.10;;
22068;SDS011;13887;57.196;-2.100;2022-10-16T01:39:03;0.20;;;0.20;;
22068;SDS011;13887;57.196;-2.100;2022-10-16T01:41:34;0.20;;;0.20;;
22068;SDS011;13887;57.196;-2.100;2022-10-16T01:44:08;0.10;;;0.10;;
22068;SDS011;13887;57.196;-2.100;2022-10-16T01:46:42;0.20;;;0.20;;
22068;SDS011;13887;57.196;-2.100;2022-10-16T01:49:12;0.20;;;0.20;;
22068;SDS011;13887;57.196;-2.100;2022-10-16T01:51:39;0.13;;;0.13;;
22068;SDS011;13887;57.196;-2.100;2022-10-16T01:54:09;0.20;;;0.20;;
22068;SDS011;13887;57.196;-2.100;2022-10-16T01:56:40;0.20;;;0.20;;
22068;SDS011;13887;57.196;-2.100;2022-10-16T01:59:13;0.20;;;0.20;;
22068;SDS011;13887;57.196;-2.100;2022-10-16T02:01:45;0.30;;;0.30;;
22068;SDS011;13887;57.196;-2.100;2022-10-16T02:04:20;0.30;;;0.30;;
22068;SDS011;13887;57.196;-2.100;2022-10-16T02:06:56;0.20;;;0.20;;
22068;SDS011;13887;57.196;-2.100;2022-10-16T02:09:23;0.20;;;0.20;;
22068;SDS011;13887;57.196;-2.100;2022-10-16T02:11:51;0.20;;;0.20;;
22068;SDS011;13887;57.196;-2.100;2022-10-16T02:14:21;0.10;;;0.10;;
22068;SDS011;13887;57.196;-2.100;2022-10-16T02:16:50;0.20;;;0.20;;
22068;SDS011;13887;57.196;-2.100;2022-10-16T02:19:18;0.20;;;0.20;;
22068;SDS011;13887;57.196;-2.100;2022-10-16T02:27:24;0.20;;;0.20;;
22068;SDS011;13887;57.196;-2.100;2022-10-16T02:29:59;0.13;;;0.13;;
22068;SDS011;13887;57.196;-2.100;2022-10-16T02:32:35;0.20;;;0.20;;
22068;SDS011;13887;57.196;-2.100;2022-10-16T02:35:05;0.40;;;0.40;;
22068;SDS011;13887;57.196;-2.100;2022-10-16T02:37:33;1.60;;;1.60;;
22068;SDS011;13887;57.196;-2.100;2022-10-16T02:40:01;1.87;;;1.87;;
22068;SDS011;13887;57.196;-2.100;2022-10-16T02:42:34;2.10;;;2.10;;
22068;SDS011;13887;57.196;-2.100;2022-10-16T02:45:03;1.60;;;1.60;;
22068;SDS011;13887;57.196;-2.100;2022-10-16T02:47:31;0.10;;;0.10;;
22068;SDS011;13887;57.196;-2.100;2022-10-16T02:49:58;0.13;;;0.13;;
22068;SDS011;13887;57.196;-2.100;2022-10-16T02:52:25;0.30;;;0.30;;
22068;SDS011;13887;57.196;-2.100;2022-10-16T02:54:52;0.10;;;0.10;;
22068;SDS011;13887;57.196;-2.100;2022-10-16T02:57:20;0.10;;;0.10;;
22068;SDS011;13887;57.196;-2.100;2022-10-16T02:59:47;0.10;;;0.10;;
22068;SDS011;13887;57.196;-2.100;2022-10-16T03:02:13;0.10;;;0.10;;
22068;SDS011;13887;57.196;-2.100;2022-10-16T03:04:40;0.10;;;0.10;;
22068;SDS011;13887;57.196;-2.100;2022-10-16T03:07:07;0.40;;;0.40;;
22068;SDS011;13887;57.196;-2.100;2022-10-16T03:09:34;1.57;;;1.57;;
22068;SDS011;13887;57.196;-2.100;2022-10-16T03:12:01;1.30;;;1.30;;
22068;SDS011;13887;57.196;-2.100;2022-10-16T03:14:28;3.80;;;3.70;;
22068;SDS011;13887;57.196;-2.100;2022-10-16T03:16:55;0.10;;;0.10;;
22068;SDS011;13887;57.196;-2.100;2022-10-16T03:19:22;0.20;;;0.20;;
22068;SDS011;13887;57.196;-2.100;2022-10-16T03:21:49;0.50;;;0.50;;
22068;SDS011;13887;57.196;-2.100;2022-10-16T03:24:16;0.40;;;0.40;;
22068;SDS011;13887;57.196;-2.100;2022-10-16T03:26:42;0.30;;;0.30;;
22068;SDS011;13887;57.196;-2.100;2022-10-16T03:29:09;2.53;;;2.53;;
22068;SDS011;13887;57.196;-2.100;2022-10-16T03:31:36;0.10;;;0.10;;
22068;SDS011;13887;57.196;-2.100;2022-10-16T03:34:03;0.10;;;0.10;;
22068;SDS011;13887;57.196;-2.100;2022-10-16T03:36:30;0.10;;;0.10;;
22068;SDS011;13887;57.196;-2.100;2022-10-16T03:38:57;0.10;;;0.10;;
22068;SDS011;13887;57.196;-2.100;2022-10-16T03:41:24;0.97;;;0.97;;
22068;SDS011;13887;57.196;-2.100;2022-10-16T03:43:51;0.10;;;0.10;;
22068;SDS011;13887;57.196;-2.100;2022-10-16T03:46:18;6.20;;;5.97;;
22068;SDS011;13887;57.196;-2.100;2022-10-16T03:48:45;0.60;;;0.60;;
22068;SDS011;13887;57.196;-2.100;2022-10-16T03:51:11;2.10;;;2.10;;
22068;SDS011;13887;57.196;-2.100;2022-10-16T03:53:38;6.50;;;6.30;;
22068;SDS011;13887;57.196;-2.100;2022-10-16T03:56:05;13.07;;;12.67;;
22068;SDS011;13887;57.196;-2.100;2022-10-16T03:58:33;12.63;;;12.23;;
22068;SDS011;13887;57.196;-2.100;2022-10-16T04:00:59;12.80;;;12.40;;
22068;SDS011;13887;57.196;-2.100;2022-10-16T04:03:26;12.20;;;11.80;;
22068;SDS011;13887;57.196;-2.100;2022-10-16T04:05:53;12.30;;;11.90;;
22068;SDS011;13887;57.196;-2.100;2022-10-16T04:08:20;12.67;;;12.27;;
22068;SDS011;13887;57.196;-2.100;2022-10-16T04:10:47;12.33;;;11.93;;
22068;SDS011;13887;57.196;-2.100;2022-10-16T04:13:14;12.90;;;12.50;;
22068;SDS011;13887;57.196;-2.100;2022-10-16T04:15:41;12.43;;;12.03;;
22068;SDS011;13887;57.196;-2.100;2022-10-16T04:18:08;12.20;;;11.80;;
22068;SDS011;13887;57.196;-2.100;2022-10-16T04:20:35;12.50;;;12.10;;
22068;SDS011;13887;57.196;-2.100;2022-10-16T04:23:02;12.17;;;11.77;;
22068;SDS011;13887;57.196;-2.100;2022-10-16T04:25:29;13.23;;;12.83;;
22068;SDS011;13887;57.196;-2.100;2022-10-16T04:27:57;12.50;;;12.10;;
22068;SDS011;13887;57.196;-2.100;2022-10-16T04:30:24;9.97;;;9.67;;
22068;SDS011;13887;57.196;-2.100;2022-10-16T04:32:51;12.90;;;12.50;;
22068;SDS011;13887;57.196;-2.100;2022-10-16T04:35:20;13.50;;;13.00;;
22068;SDS011;13887;57.196;-2.100;2022-10-16T04:37:47;13.43;;;12.93;;
22068;SDS011;13887;57.196;-2.100;2022-10-16T04:40:14;13.37;;;12.87;;
22068;SDS011;13887;57.196;-2.100;2022-10-16T04:42:41;13.27;;;12.87;;
22068;SDS011;13887;57.196;-2.100;2022-10-16T04:45:08;12.70;;;12.30;;
22068;SDS011;13887;57.196;-2.100;2022-10-16T04:47:40;13.47;;;13.07;;
22068;SDS011;13887;57.196;-2.100;2022-10-16T04:50:07;14.00;;;13.50;;
22068;SDS011;13887;57.196;-2.100;2022-10-16T04:52:34;13.00;;;12.60;;
22068;SDS011;13887;57.196;-2.100;2022-10-16T04:55:06;14.67;;;14.17;;
22068;SDS011;13887;57.196;-2.100;2022-10-16T04:57:33;14.80;;;14.30;;
22068;SDS011;13887;57.196;-2.100;2022-10-16T05:00:00;15.00;;;14.50;;
22068;SDS011;13887;57.196;-2.100;2022-10-16T05:02:27;15.07;;;14.57;;
22068;SDS011;13887;57.196;-2.100;2022-10-16T05:04:54;23.53;;;22.47;;
22068;SDS011;13887;57.196;-2.100;2022-10-16T05:07:21;19.40;;;18.70;;
22068;SDS011;13887;57.196;-2.100;2022-10-16T05:09:48;12.93;;;12.53;;
22068;SDS011;13887;57.196;-2.100;2022-10-16T05:12:14;12.97;;;12.57;;
22068;SDS011;13887;57.196;-2.100;2022-10-16T05:14:41;13.10;;;12.70;;
22068;SDS011;13887;57.196;-2.100;2022-10-16T05:17:08;13.03;;;12.63;;
22068;SDS011;13887;57.196;-2.100;2022-10-16T05:19:35;13.47;;;12.97;;
22068;SDS011;13887;57.196;-2.100;2022-10-16T05:22:02;13.20;;;12.80;;
22068;SDS011;13887;57.196;-2.100;2022-10-16T05:24:29;13.00;;;12.60;;
22068;SDS011;13887;57.196;-2.100;2022-10-16T05:26:56;12.90;;;12.50;;
22068;SDS011;13887;57.196;-2.100;2022-10-16T05:29:23;13.10;;;12.70;;
22068;SDS011;13887;57.196;-2.100;2022-10-16T05:31:51;13.23;;;12.77;;
22068;SDS011;13887;57.196;-2.100;2022-10-16T05:34:19;13.17;;;12.73;;
22068;SDS011;13887;57.196;-2.100;2022-10-16T05:36:46;13.20;;;12.80;;
22068;SDS011;13887;57.196;-2.100;2022-10-16T05:39:13;13.40;;;12.90;;
22068;SDS011;13887;57.196;-2.100;2022-10-16T05:41:41;13.40;;;12.90;;
22068;SDS011;13887;57.196;-2.100;2022-10-16T05:44:09;13.33;;;12.87;;
22068;SDS011;13887;57.196;-2.100;2022-10-16T05:46:36;13.60;;;13.10;;
22068;SDS011;13887;57.196;-2.100;2022-10-16T05:49:03;13.10;;;12.70;;
22068;SDS011;13887;57.196;-2.100;2022-10-16T05:51:30;12.93;;;12.53;;
22068;SDS011;13887;57.196;-2.100;2022-10-16T05:53:56;13.60;;;13.10;;
22068;SDS011;13887;57.196;-2.100;2022-10-16T05:56:23;12.80;;;12.40;;
22068;SDS011;13887;57.196;-2.100;2022-10-16T05:58:50;13.00;;;12.60;;
22068;SDS011;13887;57.196;-2.100;2022-10-16T06:01:17;13.33;;;12.83;;
22068;SDS011;13887;57.196;-2.100;2022-10-16T06:03:45;13.60;;;13.10;;
22068;SDS011;13887;57.196;-2.100;2022-10-16T06:06:16;12.80;;;12.40;;
22068;SDS011;13887;57.196;-2.100;2022-10-16T06:08:46;13.50;;;13.00;;
22068;SDS011;13887;57.196;-2.100;2022-10-16T06:11:18;13.60;;;13.10;;
22068;SDS011;13887;57.196;-2.100;2022-10-16T06:13:51;13.30;;;12.90;;
22068;SDS011;13887;57.196;-2.100;2022-10-16T06:16:19;12.97;;;12.57;;
22068;SDS011;13887;57.196;-2.100;2022-10-16T06:18:46;13.57;;;13.07;;
22068;SDS011;13887;57.196;-2.100;2022-10-16T06:21:14;13.13;;;12.73;;
22068;SDS011;13887;57.196;-2.100;2022-10-16T06:23:44;13.17;;;12.77;;
22068;SDS011;13887;57.196;-2.100;2022-10-16T06:26:13;13.43;;;12.97;;
22068;SDS011;13887;57.196;-2.100;2022-10-16T06:28:41;12.90;;;12.50;;
22068;SDS011;13887;57.196;-2.100;2022-10-16T06:31:09;13.00;;;12.60;;
22068;SDS011;13887;57.196;-2.100;2022-10-16T06:33:37;13.43;;;12.93;;
22068;SDS011;13887;57.196;-2.100;2022-10-16T06:36:06;13.03;;;12.63;;
22068;SDS011;13887;57.196;-2.100;2022-10-16T06:38:38;13.10;;;12.70;;
22068;SDS011;13887;57.196;-2.100;2022-10-16T06:41:05;12.70;;;12.30;;
22068;SDS011;13887;57.196;-2.100;2022-10-16T06:43:33;12.93;;;12.53;;
22068;SDS011;13887;57.196;-2.100;2022-10-16T06:46:04;13.00;;;12.60;;
22068;SDS011;13887;57.196;-2.100;2022-10-16T06:48:34;13.03;;;12.63;;
22068;SDS011;13887;57.196;-2.100;2022-10-16T06:51:02;12.40;;;12.00;;
22068;SDS011;13887;57.196;-2.100;2022-10-16T06:53:33;12.50;;;12.10;;
22068;SDS011;13887;57.196;-2.100;2022-10-16T06:58:37;12.60;;;12.20;;
22068;SDS011;13887;57.196;-2.100;2022-10-16T07:01:05;12.60;;;12.20;;
22068;SDS011;13887;57.196;-2.100;2022-10-16T07:03:33;12.57;;;12.17;;
22068;SDS011;13887;57.196;-2.100;2022-10-16T07:06:03;12.40;;;12.00;;
22068;SDS011;13887;57.196;-2.100;2022-10-16T07:08:34;12.57;;;12.17;;
22068;SDS011;13887;57.196;-2.100;2022-10-16T07:11:04;12.83;;;12.43;;
22068;SDS011;13887;57.196;-2.100;2022-10-16T07:13:42;12.43;;;12.03;;
22068;SDS011;13887;57.196;-2.100;2022-10-16T07:16:14;12.70;;;12.30;;
22068;SDS011;13887;57.196;-2.100;2022-10-16T07:18:43;12.67;;;12.27;;
22068;SDS011;13887;57.196;-2.100;2022-10-16T07:21:13;12.60;;;12.20;;
22068;SDS011;13887;57.196;-2.100;2022-10-16T07:23:42;12.83;;;12.43;;
22068;SDS011;13887;57.196;-2.100;2022-10-16T07:26:10;12.00;;;11.60;;
22068;SDS011;13887;57.196;-2.100;2022-10-16T07:28:37;12.27;;;11.87;;
22068;SDS011;13887;57.196;-2.100;2022-10-16T07:31:07;12.17;;;11.77;;
22068;SDS011;13887;57.196;-2.100;2022-10-16T07:33:37;12.00;;;11.60;;
22068;SDS011;13887;57.196;-2.100;2022-10-16T07:36:05;11.90;;;11.50;;
22068;SDS011;13887;57.196;-2.100;2022-10-16T07:38:32;12.13;;;11.73;;
22068;SDS011;13887;57.196;-2.100;2022-10-16T07:41:03;12.03;;;11.63;;
22068;SDS011;13887;57.196;-2.100;2022-10-16T07:43:31;11.93;;;11.53;;
22068;SDS011;13887;57.196;-2.100;2022-10-16T07:45:59;11.90;;;11.50;;
22068;SDS011;13887;57.196;-2.100;2022-10-16T07:48:32;12.07;;;11.67;;
22068;SDS011;13887;57.196;-2.100;2022-10-16T07:51:01;11.80;;;11.40;;
22068;SDS011;13887;57.196;-2.100;2022-10-16T07:53:30;12.20;;;11.80;;
22068;SDS011;13887;57.196;-2.100;2022-10-16T07:56:01;11.30;;;10.90;;
22068;SDS011;13887;57.196;-2.100;2022-10-16T07:58:30;11.80;;;11.40;;
22068;SDS011;13887;57.196;-2.100;2022-10-16T08:00:57;11.77;;;11.37;;
22068;SDS011;13887;57.196;-2.100;2022-10-16T08:03:24;11.70;;;11.30;;
22068;SDS011;13887;57.196;-2.100;2022-10-16T08:05:51;12.00;;;11.60;;
22068;SDS011;13887;57.196;-2.100;2022-10-16T08:08:19;11.80;;;11.40;;
22068;SDS011;13887;57.196;-2.100;2022-10-16T08:10:46;12.23;;;11.83;;
22068;SDS011;13887;57.196;-2.100;2022-10-16T08:13:12;12.50;;;12.10;;
22068;SDS011;13887;57.196;-2.100;2022-10-16T08:15:45;11.87;;;11.47;;
22068;SDS011;13887;57.196;-2.100;2022-10-16T08:18:13;11.80;;;11.40;;
22068;SDS011;13887;57.196;-2.100;2022-10-16T08:20:41;12.50;;;12.10;;
22068;SDS011;13887;57.196;-2.100;2022-10-16T08:23:09;12.20;;;11.80;;
22068;SDS011;13887;57.196;-2.100;2022-10-16T08:25:38;12.10;;;11.70;;
22068;SDS011;13887;57.196;-2.100;2022-10-16T08:28:07;11.73;;;11.33;;
22068;SDS011;13887;57.196;-2.100;2022-10-16T08:30:35;12.03;;;11.63;;
22068;SDS011;13887;57.196;-2.100;2022-10-16T08:33:03;11.97;;;11.57;;
22068;SDS011;13887;57.196;-2.100;2022-10-16T08:35:30;11.50;;;11.10;;
22068;SDS011;13887;57.196;-2.100;2022-10-16T08:37:57;11.30;;;10.90;;
22068;SDS011;13887;57.196;-2.100;2022-10-16T08:43:00;11.80;;;11.40;;
22068;SDS011;13887;57.196;-2.100;2022-10-16T08:50:38;11.77;;;11.37;;
22068;SDS011;13887;57.196;-2.100;2022-10-16T08:53:07;12.00;;;11.60;;
22068;SDS011;13887;57.196;-2.100;2022-10-16T08:55:49;11.87;;;11.47;;
22068;SDS011;13887;57.196;-2.100;2022-10-16T08:58:18;11.87;;;11.47;;
22068;SDS011;13887;57.196;-2.100;2022-10-16T09:00:56;11.60;;;11.20;;
22068;SDS011;13887;57.196;-2.100;2022-10-16T09:09:35;11.90;;;11.50;;
22068;SDS011;13887;57.196;-2.100;2022-10-16T09:20:35;11.70;;;11.30;;
22068;SDS011;13887;57.196;-2.100;2022-10-16T09:25:47;11.67;;;11.27;;
22068;SDS011;13887;57.196;-2.100;2022-10-16T09:28:17;11.47;;;11.07;;
22068;SDS011;13887;57.196;-2.100;2022-10-16T09:30:45;11.20;;;10.80;;
22068;SDS011;13887;57.196;-2.100;2022-10-16T09:33:12;12.30;;;11.90;;
22068;SDS011;13887;57.196;-2.100;2022-10-16T09:35:44;12.00;;;11.60;;
22068;SDS011;13887;57.196;-2.100;2022-10-16T09:40:58;12.30;;;11.90;;
22068;SDS011;13887;57.196;-2.100;2022-10-16T09:48:57;11.17;;;10.83;;
22068;SDS011;13887;57.196;-2.100;2022-10-16T09:51:45;11.47;;;11.07;;
22068;SDS011;13887;57.196;-2.100;2022-10-16T09:54:16;11.70;;;11.30;;
22068;SDS011;13887;57.196;-2.100;2022-10-16T09:56:44;11.90;;;11.50;;
22068;SDS011;13887;57.196;-2.100;2022-10-16T09:59:16;11.50;;;11.10;;
22068;SDS011;13887;57.196;-2.100;2022-10-16T10:01:48;11.93;;;11.53;;
22068;SDS011;13887;57.196;-2.100;2022-10-16T10:04:16;11.90;;;11.50;;
22068;SDS011;13887;57.196;-2.100;2022-10-16T10:09:23;12.07;;;11.67;;
22068;SDS011;13887;57.196;-2.100;2022-10-16T10:14:23;11.50;;;11.10;;
22068;SDS011;13887;57.196;-2.100;2022-10-16T10:16:51;10.60;;;10.30;;
22068;SDS011;13887;57.196;-2.100;2022-10-16T10:19:27;11.30;;;10.90;;
22068;SDS011;13887;57.196;-2.100;2022-10-16T10:21:58;10.83;;;10.53;;
22068;SDS011;13887;57.196;-2.100;2022-10-16T10:24:25;11.70;;;11.30;;
22068;SDS011;13887;57.196;-2.100;2022-10-16T10:26:57;10.90;;;10.60;;
22068;SDS011;13887;57.196;-2.100;2022-10-16T10:30:18;11.37;;;10.97;;
22068;SDS011;13887;57.196;-2.100;2022-10-16T10:32:46;10.90;;;10.60;;
22068;SDS011;13887;57.196;-2.100;2022-10-16T10:38:54;10.10;;;9.80;;
22068;SDS011;13887;57.196;-2.100;2022-10-16T10:47:54;10.40;;;10.10;;
22068;SDS011;13887;57.196;-2.100;2022-10-16T10:51:01;9.97;;;9.67;;
22068;SDS011;13887;57.196;-2.100;2022-10-16T10:53:36;9.90;;;9.60;;
22068;SDS011;13887;57.196;-2.100;2022-10-16T10:56:22;9.90;;;9.60;;
22068;SDS011;13887;57.196;-2.100;2022-10-16T11:01:44;10.10;;;9.80;;
22068;SDS011;13887;57.196;-2.100;2022-10-16T11:07:00;10.07;;;9.77;;
22068;SDS011;13887;57.196;-2.100;2022-10-16T11:09:31;10.17;;;9.87;;
22068;SDS011;13887;57.196;-2.100;2022-10-16T11:12:16;10.57;;;10.27;;
22068;SDS011;13887;57.196;-2.100;2022-10-16T11:15:02;10.23;;;9.93;;
22068;SDS011;13887;57.196;-2.100;2022-10-16T11:17:57;10.90;;;10.60;;
22068;SDS011;13887;57.196;-2.100;2022-10-16T11:20:49;11.07;;;10.77;;
22068;SDS011;13887;57.196;-2.100;2022-10-16T11:23:25;10.50;;;10.20;;
22068;SDS011;13887;57.196;-2.100;2022-10-16T11:25:59;10.40;;;10.10;;
22068;SDS011;13887;57.196;-2.100;2022-10-16T11:28:32;11.10;;;10.80;;
22068;SDS011;13887;57.196;-2.100;2022-10-16T11:31:24;10.93;;;10.63;;
22068;SDS011;13887;57.196;-2.100;2022-10-16T11:34:12;10.17;;;9.87;;
22068;SDS011;13887;57.196;-2.100;2022-10-16T11:37:13;10.33;;;10.03;;
22068;SDS011;13887;57.196;-2.100;2022-10-16T11:39:44;10.43;;;10.13;;
22068;SDS011;13887;57.196;-2.100;2022-10-16T11:44:54;10.67;;;10.37;;
22068;SDS011;13887;57.196;-2.100;2022-10-16T11:56:20;11.47;;;11.07;;
22068;SDS011;13887;57.196;-2.100;2022-10-16T11:59:04;10.93;;;10.63;;
22068;SDS011;13887;57.196;-2.100;2022-10-16T12:04:52;11.60;;;11.20;;
22068;SDS011;13887;57.196;-2.100;2022-10-16T12:07:27;10.97;;;10.67;;
22068;SDS011;13887;57.196;-2.100;2022-10-16T12:10:18;11.10;;;10.80;;
22068;SDS011;13887;57.196;-2.100;2022-10-16T12:12:53;11.67;;;11.27;;
22068;SDS011;13887;57.196;-2.100;2022-10-16T12:15:27;18.77;;;17.90;;
22068;SDS011;13887;57.196;-2.100;2022-10-16T12:18:23;11.63;;;11.23;;
22068;SDS011;13887;57.196;-2.100;2022-10-16T12:20:54;12.30;;;11.90;;
22068;SDS011;13887;57.196;-2.100;2022-10-16T12:23:30;12.00;;;11.60;;
22068;SDS011;13887;57.196;-2.100;2022-10-16T12:26:52;11.53;;;11.13;;
22068;SDS011;13887;57.196;-2.100;2022-10-16T12:29:26;11.40;;;11.00;;
22068;SDS011;13887;57.196;-2.100;2022-10-16T12:32:03;11.53;;;11.13;;
22068;SDS011;13887;57.196;-2.100;2022-10-16T12:37:10;12.87;;;12.47;;
22068;SDS011;13887;57.196;-2.100;2022-10-16T12:39:45;11.10;;;10.80;;
22068;SDS011;13887;57.196;-2.100;2022-10-16T12:45:21;11.10;;;10.77;;
22068;SDS011;13887;57.196;-2.100;2022-10-16T12:47:53;10.87;;;10.57;;
22068;SDS011;13887;57.196;-2.100;2022-10-16T12:53:17;10.90;;;10.60;;
22068;SDS011;13887;57.196;-2.100;2022-10-16T12:56:09;11.90;;;11.50;;
22068;SDS011;13887;57.196;-2.100;2022-10-16T13:10:25;11.77;;;11.37;;
22068;SDS011;13887;57.196;-2.100;2022-10-16T13:18:38;11.83;;;11.43;;
22068;SDS011;13887;57.196;-2.100;2022-10-16T13:21:29;11.90;;;11.50;;
22068;SDS011;13887;57.196;-2.100;2022-10-16T13:29:40;15.37;;;14.87;;
22068;SDS011;13887;57.196;-2.100;2022-10-16T13:32:09;12.13;;;11.73;;
22068;SDS011;13887;57.196;-2.100;2022-10-16T13:34:44;12.17;;;11.77;;
22068;SDS011;13887;57.196;-2.100;2022-10-16T13:37:19;12.27;;;11.87;;
22068;SDS011;13887;57.196;-2.100;2022-10-16T13:39:48;11.97;;;11.57;;
22068;SDS011;13887;57.196;-2.100;2022-10-16T13:42:23;11.80;;;11.40;;
22068;SDS011;13887;57.196;-2.100;2022-10-16T13:44:54;11.60;;;11.20;;
22068;SDS011;13887;57.196;-2.100;2022-10-16T13:47:26;11.67;;;11.27;;
22068;SDS011;13887;57.196;-2.100;2022-10-16T13:50:04;9.80;;;9.50;;
22068;SDS011;13887;57.196;-2.100;2022-10-16T13:52:35;10.10;;;9.80;;
22068;SDS011;13887;57.196;-2.100;2022-10-16T13:55:04;9.87;;;9.57;;
22068;SDS011;13887;57.196;-2.100;2022-10-16T13:57:42;10.57;;;10.27;;
22068;SDS011;13887;57.196;-2.100;2022-10-16T14:00:19;15.53;;;14.67;;
22068;SDS011;13887;57.196;-2.100;2022-10-16T14:03:01;10.20;;;9.90;;
22068;SDS011;13887;57.196;-2.100;2022-10-16T14:05:30;9.93;;;9.63;;
22068;SDS011;13887;57.196;-2.100;2022-10-16T14:07:57;10.23;;;9.93;;
22068;SDS011;13887;57.196;-2.100;2022-10-16T14:10:27;10.33;;;10.03;;
22068;SDS011;13887;57.196;-2.100;2022-10-16T14:13:00;10.50;;;10.20;;
22068;SDS011;13887;57.196;-2.100;2022-10-16T14:15:33;10.63;;;10.33;;
22068;SDS011;13887;57.196;-2.100;2022-10-16T14:18:01;10.77;;;10.47;;
22068;SDS011;13887;57.196;-2.100;2022-10-16T14:20:30;10.60;;;10.30;;
22068;SDS011;13887;57.196;-2.100;2022-10-16T14:23:03;10.87;;;10.57;;
22068;SDS011;13887;57.196;-2.100;2022-10-16T14:25:45;10.90;;;10.60;;
22068;SDS011;13887;57.196;-2.100;2022-10-16T14:38:38;10.30;;;10.00;;
22068;SDS011;13887;57.196;-2.100;2022-10-16T14:41:06;10.83;;;10.53;;
22068;SDS011;13887;57.196;-2.100;2022-10-16T14:43:40;10.80;;;10.50;;
22068;SDS011;13887;57.196;-2.100;2022-10-16T14:46:20;10.53;;;10.23;;
22068;SDS011;13887;57.196;-2.100;2022-10-16T14:48:57;10.83;;;10.53;;
22068;SDS011;13887;57.196;-2.100;2022-10-16T14:51:28;10.80;;;10.50;;
22068;SDS011;13887;57.196;-2.100;2022-10-16T14:53:55;11.00;;;10.70;;
22068;SDS011;13887;57.196;-2.100;2022-10-16T14:56:28;10.83;;;10.53;;
22068;SDS011;13887;57.196;-2.100;2022-10-16T14:58:58;10.70;;;10.40;;
22068;SDS011;13887;57.196;-2.100;2022-10-16T15:01:27;10.17;;;9.87;;
22068;SDS011;13887;57.196;-2.100;2022-10-16T15:03:53;10.60;;;10.30;;
22068;SDS011;13887;57.196;-2.100;2022-10-16T15:06:21;10.40;;;10.10;;
22068;SDS011;13887;57.196;-2.100;2022-10-16T15:08:48;10.60;;;10.30;;
22068;SDS011;13887;57.196;-2.100;2022-10-16T15:11:16;10.90;;;10.60;;
22068;SDS011;13887;57.196;-2.100;2022-10-16T15:13:44;10.70;;;10.40;;
22068;SDS011;13887;57.196;-2.100;2022-10-16T15:16:13;10.40;;;10.10;;
22068;SDS011;13887;57.196;-2.100;2022-10-16T15:18:41;10.60;;;10.30;;
22068;SDS011;13887;57.196;-2.100;2022-10-16T15:21:13;10.40;;;10.10;;
22068;SDS011;13887;57.196;-2.100;2022-10-16T15:23:54;11.43;;;11.03;;
22068;SDS011;13887;57.196;-2.100;2022-10-16T15:26:26;10.40;;;10.10;;
22068;SDS011;13887;57.196;-2.100;2022-10-16T15:28:54;10.80;;;10.50;;
22068;SDS011;13887;57.196;-2.100;2022-10-16T15:31:21;10.70;;;10.40;;
22068;SDS011;13887;57.196;-2.100;2022-10-16T15:33:50;10.37;;;10.07;;
22068;SDS011;13887;57.196;-2.100;2022-10-16T15:36:29;11.43;;;11.03;;
22068;SDS011;13887;57.196;-2.100;2022-10-16T15:39:00;10.90;;;10.60;;
22068;SDS011;13887;57.196;-2.100;2022-10-16T15:41:26;11.00;;;10.70;;
22068;SDS011;13887;57.196;-2.100;2022-10-16T15:43:53;10.77;;;10.47;;
22068;SDS011;13887;57.196;-2.100;2022-10-16T15:46:21;11.03;;;10.73;;
22068;SDS011;13887;57.196;-2.100;2022-10-16T15:48:50;11.07;;;10.77;;
22068;SDS011;13887;57.196;-2.100;2022-10-16T15:51:21;10.93;;;10.63;;
22068;SDS011;13887;57.196;-2.100;2022-10-16T15:53:48;10.10;;;9.80;;
22068;SDS011;13887;57.196;-2.100;2022-10-16T15:56:17;11.30;;;10.90;;
22068;SDS011;13887;57.196;-2.100;2022-10-16T15:58:43;11.10;;;10.80;;
22068;SDS011;13887;57.196;-2.100;2022-10-16T16:01:11;10.90;;;10.60;;
22068;SDS011;13887;57.196;-2.100;2022-10-16T16:03:38;10.67;;;10.37;;
22068;SDS011;13887;57.196;-2.100;2022-10-16T16:06:09;11.53;;;11.13;;
22068;SDS011;13887;57.196;-2.100;2022-10-16T16:08:38;10.83;;;10.53;;
22068;SDS011;13887;57.196;-2.100;2022-10-16T16:11:10;11.07;;;10.77;;
22068;SDS011;13887;57.196;-2.100;2022-10-16T16:13:39;11.53;;;11.13;;
22068;SDS011;13887;57.196;-2.100;2022-10-16T16:16:08;11.27;;;10.87;;
22068;SDS011;13887;57.196;-2.100;2022-10-16T16:18:37;11.10;;;10.80;;
22068;SDS011;13887;57.196;-2.100;2022-10-16T16:21:04;10.40;;;10.10;;
22068;SDS011;13887;57.196;-2.100;2022-10-16T16:23:32;10.90;;;10.60;;
22068;SDS011;13887;57.196;-2.100;2022-10-16T16:26:18;10.80;;;10.50;;
22068;SDS011;13887;57.196;-2.100;2022-10-16T16:28:55;10.73;;;10.43;;
22068;SDS011;13887;57.196;-2.100;2022-10-16T16:31:24;10.13;;;9.83;;
22068;SDS011;13887;57.196;-2.100;2022-10-16T16:33:52;10.60;;;10.30;;
22068;SDS011;13887;57.196;-2.100;2022-10-16T16:36:19;10.63;;;10.33;;
22068;SDS011;13887;57.196;-2.100;2022-10-16T16:38:46;10.50;;;10.20;;
22068;SDS011;13887;57.196;-2.100;2022-10-16T16:41:14;10.60;;;10.30;;
22068;SDS011;13887;57.196;-2.100;2022-10-16T16:43:45;11.37;;;11.00;;
22068;SDS011;13887;57.196;-2.100;2022-10-16T16:46:14;10.43;;;10.13;;
22068;SDS011;13887;57.196;-2.100;2022-10-16T16:48:41;11.00;;;10.70;;
22068;SDS011;13887;57.196;-2.100;2022-10-16T16:51:10;9.97;;;9.67;;
22068;SDS011;13887;57.196;-2.100;2022-10-16T16:53:43;11.17;;;10.87;;
22068;SDS011;13887;57.196;-2.100;2022-10-16T16:56:11;10.93;;;10.63;;